Three Bridges, Louisiana
Current Conditions -  °F | °C
As of 1:55 PM on Sunday 23 Nov 2014 (Local Time) from KIER Reporting Station
Clear Clear  
Wind Chill: 72°   Ceiling: Unl
Heat Index: 72°   Visibility: 10mi
Dew Point: 61°   Wind: 13mph
Humidity: 69%   Direction: 210°SSW
Pressure: 29.49"   Gusts: NA
Location:  31.6668°N, 92.8023°W
Report Text: KIER 231955Z AUTO 21011KT 180V240 10SM CLR 22/16 A2949 RMK AO2 T02200161
Loading
Personal Weather Stations






























Interactive Weather Map New forecast layout! Learn more

10-Day Weather Forecast

Advertisements
Track Severe Weather on mobile